Time;durP1;ratioP1;P1;durP2;ratioP2;P2;SDS_P1;SDS_P2;PMS_P1;PMS_P2;Temp;Humidity;BMP_temperature;BMP_pressure;BME280_temperature;BME280_humidity;BME280_pressure;Samples;Min_cycle;Max_cycle;Signal;HPM_P1;HPM_P2
2023/05/08 00:04:51;;;;;;;;;;;;;;;15.68;100.00;101980.72;10415033;28;20372;-67
2023/05/08 00:09:53;;;;;;;;;;;;;;;15.68;100.00;101974.59;10414831;28;20369;-67
2023/05/08 00:14:55;;;;;;;;;;;;;;;15.64;100.00;101971.28;10413605;28;20288;-67
2023/05/08 00:19:57;;;;;;;;;;;;;;;15.57;100.00;101970.81;10415292;28;19975;-67
2023/05/08 00:25:00;;;;;;;;;;;;;;;15.45;100.00;101974.19;10414598;28;20268;-67
2023/05/08 00:30:02;;;;;;;;;;;;;;;15.52;100.00;101979.97;10415048;28;19925;-67
2023/05/08 00:35:05;;;;;;;;;;;;;;;15.30;100.00;101973.31;10414413;28;20288;-67
2023/05/08 00:40:08;;;;;;;;;;;;;;;15.29;100.00;101978.66;10414184;28;19994;-67
2023/05/08 00:45:10;;;;;;;;;;;;;;;15.31;100.00;101971.50;10396769;28;20269;-67
2023/05/08 00:50:12;;;;;;;;;;;;;;;15.37;100.00;101973.78;10419289;28;19925;-67
2023/05/08 00:55:15;;;;;;;;;;;;;;;15.33;100.00;101969.63;10420766;28;19932;-67
2023/05/08 01:00:17;;;;;;;;;;;;;;;15.43;100.00;101965.50;10419962;28;20403;-67
2023/05/08 01:05:19;;;;;;;;;;;;;;;15.39;100.00;101961.34;10404023;28;19925;-67
2023/05/08 01:10:22;;;;;;;;;;;;;;;15.22;100.00;101960.56;10420668;28;20380;-67
2023/05/08 01:15:44;;;;;;;;;;;;;;;15.32;100.00;101967.94;10420509;28;19995;-67
2023/05/08 01:20:55;;;;;;;;;;;;;;;15.29;100.00;101966.31;10420317;28;20276;-67
2023/05/08 01:26:16;;;;;;;;;;;;;;;15.05;100.00;101965.97;10418973;28;20280;-67
2023/05/08 01:31:30;;;;;;;;;;;;;;;14.98;100.00;101973.38;10420431;28;19929;-67
2023/05/08 01:36:35;;;;;;;;;;;;;;;14.86;100.00;101979.34;10418672;28;19925;-68
2023/05/08 01:41:37;;;;;;;;;;;;;;;15.01;100.00;101969.72;10419465;28;19929;-67
2023/05/08 01:46:40;;;;;;;;;;;;;;;14.92;100.00;101960.53;10418193;28;19948;-67
2023/05/08 01:51:43;;;;;;;;;;;;;;;14.74;100.00;101978.25;10418572;28;19971;-67
2023/05/08 01:56:45;;;;;;;;;;;;;;;14.67;100.00;101971.63;10417797;28;19925;-67
2023/05/08 02:01:48;;;;;;;;;;;;;;;14.77;100.00;101971.97;10417432;28;20347;-68
2023/05/08 02:06:50;;;;;;;;;;;;;;;14.87;100.00;101970.50;10417994;28;19925;-67
2023/05/08 02:11:53;;;;;;;;;;;;;;;14.73;100.00;101968.66;10417694;28;19940;-67
2023/05/08 02:16:55;;;;;;;;;;;;;;;14.59;100.00;101973.84;10418727;28;19979;-67
2023/05/08 02:21:58;;;;;;;;;;;;;;;14.67;100.00;101987.44;10417449;28;20009;-67
2023/05/08 02:27:00;;;;;;;;;;;;;;;14.38;100.00;101984.59;10418432;28;19925;-67
2023/05/08 02:32:02;;;;;;;;;;;;;;;14.33;100.00;101988.44;10417524;28;20383;-67
2023/05/08 02:37:05;;;;;;;;;;;;;;;14.24;100.00;101990.63;10416041;28;19925;-67
2023/05/08 02:42:07;;;;;;;;;;;;;;;14.04;100.00;101994.31;10415895;28;20262;-67
2023/05/08 02:47:22;;;;;;;;;;;;;;;14.06;100.00;101996.88;10416961;28;19975;-68
2023/05/08 02:52:29;;;;;;;;;;;;;;;14.10;100.00;101986.09;10416270;28;19931;-67
2023/05/08 02:57:37;;;;;;;;;;;;;;;14.08;100.00;101984.47;10416072;28;19925;-67
2023/05/08 03:02:43;;;;;;;;;;;;;;;13.92;100.00;101981.81;10417103;28;19925;-67
2023/05/08 03:07:50;;;;;;;;;;;;;;;14.01;100.00;101981.31;10415715;28;20023;-68
2023/05/08 03:12:52;;;;;;;;;;;;;;;13.94;100.00;101983.41;10414551;28;19925;-67
2023/05/08 03:17:55;;;;;;;;;;;;;;;13.94;100.00;101978.16;10414874;28;19932;-67
2023/05/08 03:22:57;;;;;;;;;;;;;;;14.08;100.00;101977.41;10414777;28;19940;-67
2023/05/08 03:27:59;;;;;;;;;;;;;;;14.03;100.00;101982.06;10416335;28;19932;-67
2023/05/08 03:33:06;;;;;;;;;;;;;;;13.95;100.00;101981.63;10416265;28;19926;-67
2023/05/08 03:38:08;;;;;;;;;;;;;;;14.08;100.00;101985.31;10414686;28;19936;-67
2023/05/08 03:43:10;;;;;;;;;;;;;;;14.03;100.00;101984.72;10414271;28;20335;-67
2023/05/08 03:48:14;;;;;;;;;;;;;;;14.09;100.00;101979.13;10414702;28;19979;-68
2023/05/08 03:53:16;;;;;;;;;;;;;;;14.30;100.00;101974.47;10414690;28;19925;-67
2023/05/08 03:58:37;;;;;;;;;;;;;;;14.04;100.00;101977.69;10415068;28;20346;-67
2023/05/08 04:03:43;;;;;;;;;;;;;;;14.09;100.00;101980.91;10414530;28;19926;-67
2023/05/08 04:08:51;;;;;;;;;;;;;;;14.09;100.00;101980.91;10414370;28;19925;-67
2023/05/08 04:13:57;;;;;;;;;;;;;;;13.94;100.00;101982.56;10414330;28;19932;-67
2023/05/08 04:19:02;;;;;;;;;;;;;;;13.96;100.00;101978.06;10414211;28;19925;-67
2023/05/08 04:24:06;;;;;;;;;;;;;;;14.05;100.00;101974.94;10417367;28;19978;-67
2023/05/08 04:29:08;;;;;;;;;;;;;;;13.81;100.00;101977.09;10421761;28;19983;-67
2023/05/08 04:34:10;;;;;;;;;;;;;;;13.89;100.00;101988.06;10422801;28;19925;-68
2023/05/08 04:39:13;;;;;;;;;;;;;;;14.02;100.00;101990.94;10420567;28;20368;-67
2023/05/08 04:44:15;;;;;;;;;;;;;;;13.83;100.00;101998.91;10422454;28;19932;-67
2023/05/08 04:49:17;;;;;;;;;;;;;;;13.82;100.00;102002.50;10420958;28;19971;-67
2023/05/08 04:54:19;;;;;;;;;;;;;;;13.81;100.00;101997.31;10422027;28;19925;-67
2023/05/08 04:59:21;;;;;;;;;;;;;;;13.88;100.00;102007.41;10421834;28;19925;-67
2023/05/08 05:04:24;;;;;;;;;;;;;;;14.34;100.00;102003.28;10421833;28;19929;-67
2023/05/08 05:09:26;;;;;;;;;;;;;;;14.38;100.00;101999.56;10420270;28;19971;-67
2023/05/08 05:14:28;;;;;;;;;;;;;;;14.37;100.00;102005.75;10420700;28;19929;-67
2023/05/08 05:19:31;;;;;;;;;;;;;;;14.49;100.00;102005.94;10419355;28;19929;-67
2023/05/08 05:24:34;;;;;;;;;;;;;;;14.52;100.00;102007.56;10420310;28;20387;-67
2023/05/08 05:29:37;;;;;;;;;;;;;;;14.72;100.00;102011.75;10418251;28;19932;-67
2023/05/08 05:34:39;;;;;;;;;;;;;;;14.70;100.00;102007.53;10420084;28;19976;-67
2023/05/08 05:39:41;;;;;;;;;;;;;;;14.84;100.00;102010.22;10419822;28;19932;-67
2023/05/08 05:44:43;;;;;;;;;;;;;;;14.87;100.00;102017.97;10418081;28;19933;-67
2023/05/08 05:49:46;;;;;;;;;;;;;;;14.96;100.00;102025.38;10417467;28;20335;-67
2023/05/08 05:54:48;;;;;;;;;;;;;;;14.87;100.00;102031.16;10419033;28;19936;-68
2023/05/08 05:59:50;;;;;;;;;;;;;;;14.68;100.00;102031.31;10419026;28;20280;-67
2023/05/08 06:04:55;;;;;;;;;;;;;;;15.34;100.00;102026.75;10417673;28;19933;-68
2023/05/08 06:09:58;;;;;;;;;;;;;;;15.52;100.00;102032.75;10417999;28;19932;-68
2023/05/08 06:15:00;;;;;;;;;;;;;;;15.82;100.00;102034.53;10418905;28;19929;-68
2023/05/08 06:20:03;;;;;;;;;;;;;;;16.02;100.00;102046.53;10416994;28;19926;-67
2023/05/08 06:25:06;;;;;;;;;;;;;;;16.15;100.00;102040.44;10417615;28;19979;-67
2023/05/08 06:30:09;;;;;;;;;;;;;;;16.04;100.00;102045.50;10416623;28;20304;-67
2023/05/08 06:35:12;;;;;;;;;;;;;;;16.15;100.00;102042.19;10416353;28;20011;-68
2023/05/08 06:40:14;;;;;;;;;;;;;;;16.02;100.00;102044.75;10417088;28;19925;-67
2023/05/08 06:45:16;;;;;;;;;;;;;;;15.51;100.00;102042.44;10415785;28;19948;-67
2023/05/08 06:50:19;;;;;;;;;;;;;;;15.54;100.00;102036.97;10414861;28;20392;-67
2023/05/08 06:55:21;;;;;;;;;;;;;;;16.39;100.00;102033.69;10417544;28;19971;-67
2023/05/08 07:00:23;;;;;;;;;;;;;;;16.15;100.00;102044.84;10415386;28;19929;-67
2023/05/08 07:05:25;;;;;;;;;;;;;;;16.39;100.00;102046.91;10415340;28;19926;-67
2023/05/08 07:10:28;;;;;;;;;;;;;;;16.78;100.00;102038.28;10415981;28;19952;-68
2023/05/08 07:15:30;;;;;;;;;;;;;;;16.04;100.00;102042.88;10416161;28;20372;-67
2023/05/08 07:20:33;;;;;;;;;;;;;;;16.46;100.00;102040.31;10414278;28;19925;-67
2023/05/08 07:25:35;;;;;;;;;;;;;;;16.68;100.00;102040.66;10406835;28;19925;-67
2023/05/08 07:30:38;;;;;;;;;;;;;;;16.86;100.00;102035.16;10413520;28;20387;-67
2023/05/08 07:35:40;;;;;;;;;;;;;;;16.74;100.00;102035.91;10415142;28;19925;-68
2023/05/08 07:40:42;;;;;;;;;;;;;;;16.98;100.00;102033.50;10414304;28;20296;-67
2023/05/08 07:45:45;;;;;;;;;;;;;;;17.05;100.00;102035.66;10415401;28;19929;-68
2023/05/08 07:50:50;;;;;;;;;;;;;;;17.80;100.00;102028.94;10414222;28;19933;-67
2023/05/08 07:55:53;;;;;;;;;;;;;;;18.31;100.00;102038.72;10414807;28;19925;-68
2023/05/08 08:00:55;;;;;;;;;;;;;;;18.23;100.00;102033.94;10419701;28;20240;-68
2023/05/08 08:05:57;;;;;;;;;;;;;;;18.11;100.00;102040.97;10418707;28;19932;-68
2023/05/08 08:11:00;;;;;;;;;;;;;;;18.32;100.00;102041.22;10423106;28;19925;-68
2023/05/08 08:16:05;;;;;;;;;;;;;;;17.72;100.00;102042.72;10423128;28;19925;-68
2023/05/08 08:21:07;;;;;;;;;;;;;;;18.03;100.00;102042.44;10420418;28;20303;-68
2023/05/08 08:26:09;;;;;;;;;;;;;;;18.55;100.00;102041.41;10422380;28;19929;-68
2023/05/08 08:31:11;;;;;;;;;;;;;;;18.19;100.00;102035.97;10421374;28;19925;-68
2023/05/08 08:36:14;;;;;;;;;;;;;;;18.69;100.00;102030.69;10422327;28;20787;-68
2023/05/08 08:41:17;;;;;;;;;;;;;;;18.74;100.00;102028.53;10413933;28;19944;-68
2023/05/08 08:46:21;;;;;;;;;;;;;;;18.90;100.00;102019.47;10392804;28;20332;-68
2023/05/08 08:51:23;;;;;;;;;;;;;;;19.29;100.00;102012.16;10416170;28;19929;-68
2023/05/08 08:56:26;;;;;;;;;;;;;;;19.11;100.00;102006.41;10421081;28;19990;-68
2023/05/08 09:01:28;;;;;;;;;;;;;;;19.41;100.00;102005.91;10416873;28;20334;-69
2023/05/08 09:06:34;;;;;;;;;;;;;;;19.06;100.00;102008.56;10413671;28;19932;-68
2023/05/08 09:11:36;;;;;;;;;;;;;;;19.68;100.00;101997.63;10418237;28;19971;-68
2023/05/08 09:16:39;;;;;;;;;;;;;;;19.83;100.00;102008.94;10420026;28;19929;-68
2023/05/08 09:21:41;;;;;;;;;;;;;;;20.59;97.16;101995.00;10421600;28;19925;-68
2023/05/08 09:26:43;;;;;;;;;;;;;;;20.01;100.00;102005.81;10397910;28;19947;-68
2023/05/08 09:31:47;;;;;;;;;;;;;;;20.16;97.69;101995.78;10414301;28;19929;-68
2023/05/08 09:36:49;;;;;;;;;;;;;;;20.09;93.83;102008.72;10389293;28;19929;-70
2023/05/08 09:41:59;;;;;;;;;;;;;;;20.53;92.63;101998.16;10394181;28;21692;-67
2023/05/08 09:47:08;;;;;;;;;;;;;;;21.58;88.43;102005.53;10402677;28;19929;-67
2023/05/08 09:52:14;;;;;;;;;;;;;;;22.06;83.17;102003.13;10421318;28;19929;-67
2023/05/08 09:57:16;;;;;;;;;;;;;;;22.27;82.12;101999.53;10437187;28;20372;-67
2023/05/08 10:02:19;;;;;;;;;;;;;;;21.06;80.06;102013.38;10458798;28;19932;-67
2023/05/08 10:07:29;;;;;;;;;;;;;;;20.80;83.90;102005.75;10458020;28;19970;-67
2023/05/08 10:12:31;;;;;;;;;;;;;;;22.40;77.66;102002.84;10458080;28;20371;-67
2023/05/08 10:17:38;;;;;;;;;;;;;;;23.67;74.07;102000.19;10416011;28;20341;-68
2023/05/08 10:22:41;;;;;;;;;;;;;;;23.11;77.01;101995.63;10416330;28;19926;-67
2023/05/08 10:27:47;;;;;;;;;;;;;;;23.81;72.34;101993.53;10416611;28;20369;-67
2023/05/08 10:32:52;;;;;;;;;;;;;;;24.14;68.71;101998.50;10415735;28;19936;-68
2023/05/08 10:37:55;;;;;;;;;;;;;;;23.63;72.04;101993.44;10416926;28;19979;-67
2023/05/08 10:42:57;;;;;;;;;;;;;;;25.78;68.14;101984.75;10414620;28;19965;-68
2023/05/08 10:48:03;;;;;;;;;;;;;;;23.40;70.56;101974.22;10416635;28;19933;-69
2023/05/08 10:53:06;;;;;;;;;;;;;;;23.17;70.89;101981.72;10415743;28;19926;-68
2023/05/08 10:58:10;;;;;;;;;;;;;;;22.22;76.85;102001.75;10414385;28;19933;-68
2023/05/08 11:03:12;;;;;;;;;;;;;;;22.27;78.11;101999.53;10415211;28;19952;-67
2023/05/08 11:08:29;;;;;;;;;;;;;;;21.09;82.60;102002.50;10414985;28;20291;-67
2023/05/08 11:13:32;;;;;;;;;;;;;;;21.44;82.94;101998.69;10414970;28;20442;-67
2023/05/08 11:18:34;;;;;;;;;;;;;;;23.05;77.14;101985.47;10414169;28;20331;-67
2023/05/08 11:23:56;;;;;;;;;;;;;;;22.37;78.04;101988.94;10415112;28;20400;-67
2023/05/08 11:28:59;;;;;;;;;;;;;;;22.09;79.55;101988.69;10397050;28;19925;-67
2023/05/08 11:34:01;;;;;;;;;;;;;;;22.12;79.42;101983.06;10414181;28;19971;-67
2023/05/08 11:39:04;;;;;;;;;;;;;;;22.03;83.89;101975.88;10415737;28;20368;-67
2023/05/08 11:44:08;;;;;;;;;;;;;;;21.94;78.40;101971.34;10416108;28;19925;-68
2023/05/08 11:49:11;;;;;;;;;;;;;;;22.17;75.90;101964.81;10415088;28;19925;-68
2023/05/08 11:54:15;;;;;;;;;;;;;;;21.86;73.07;101967.53;10421017;22;19933;-65
2023/05/08 11:59:17;;;;;;;;;;;;;;;21.87;75.95;101971.88;10415252;28;20273;-65
2023/05/08 12:04:19;;;;;;;;;;;;;;;21.86;76.51;101967.53;10413618;28;19929;-65
2023/05/08 12:09:22;;;;;;;;;;;;;;;21.34;76.43;101975.47;10413174;28;20434;-65
2023/05/08 12:14:24;;;;;;;;;;;;;;;20.87;78.94;101968.81;10414971;28;20399;-65
2023/05/08 12:19:26;;;;;;;;;;;;;;;21.52;76.33;101961.63;10412692;28;19925;-65
2023/05/08 12:24:29;;;;;;;;;;;;;;;21.89;78.99;101975.25;10413888;28;19925;-65
2023/05/08 12:29:34;;;;;;;;;;;;;;;21.24;84.32;101971.91;10413998;28;19929;-65
2023/05/08 12:34:36;;;;;;;;;;;;;;;22.27;86.26;101959.50;10413411;28;19925;-65
2023/05/08 12:39:42;;;;;;;;;;;;;;;22.15;87.23;101961.44;10414613;28;19926;-65
2023/05/08 12:44:54;;;;;;;;;;;;;;;21.96;86.88;101959.56;10417193;28;19952;-65
2023/05/08 12:49:56;;;;;;;;;;;;;;;22.66;81.07;101946.25;10421610;28;19925;-65
2023/05/08 12:54:58;;;;;;;;;;;;;;;23.44;76.04;101937.38;10420261;28;20364;-65
2023/05/08 13:00:04;;;;;;;;;;;;;;;22.89;75.34;101935.31;10422031;28;19956;-65
2023/05/08 13:05:07;;;;;;;;;;;;;;;23.31;76.49;101924.31;10420006;28;19928;-65
2023/05/08 13:10:09;;;;;;;;;;;;;;;22.78;80.30;101915.81;10404031;28;19930;-65
2023/05/08 13:15:11;;;;;;;;;;;;;;;22.42;77.95;101917.31;10420795;28;20364;-65
2023/05/08 13:20:14;;;;;;;;;;;;;;;22.17;81.37;101916.81;10420499;28;19925;-65
2023/05/08 13:25:16;;;;;;;;;;;;;;;21.91;84.23;101920.97;10415359;28;19932;-65
2023/05/08 13:30:21;;;;;;;;;;;;;;;21.48;86.79;101920.22;10419080;28;20368;-65
2023/05/08 13:35:23;;;;;;;;;;;;;;;21.38;86.45;101911.28;10420642;28;19936;-65
2023/05/08 13:40:25;;;;;;;;;;;;;;;21.38;86.34;101916.63;10418529;28;19972;-65
2023/05/08 13:45:28;;;;;;;;;;;;;;;21.78;84.23;101911.38;10419650;28;19975;-65
2023/05/08 13:50:30;;;;;;;;;;;;;;;21.70;80.22;101908.53;10419455;28;20273;-65
2023/05/08 13:55:32;;;;;;;;;;;;;;;21.41;79.25;101895.88;10417765;28;20364;-64
2023/05/08 14:00:34;;;;;;;;;;;;;;;21.56;82.92;101896.41;10416339;28;19926;-65
2023/05/08 14:05:37;;;;;;;;;;;;;;;21.11;85.02;101902.03;10419333;28;19932;-65
2023/05/08 14:10:39;;;;;;;;;;;;;;;21.92;84.16;101890.66;10434758;28;20334;-65
2023/05/08 14:15:42;;;;;;;;;;;;;;;23.07;79.50;101887.41;10459225;28;19978;-65
2023/05/08 14:20:44;;;;;;;;;;;;;;;22.95;78.28;101892.03;10460071;28;19925;-70
2023/05/08 14:25:50;;;;;;;;;;;;;;;23.27;74.67;101886.38;10459894;28;19924;-69
2023/05/08 14:30:52;;;;;;;;;;;;;;;22.67;76.38;101891.06;10458958;28;19928;-70
2023/05/08 14:35:54;;;;;;;;;;;;;;;22.52;78.83;101888.81;10459492;28;19947;-67
2023/05/08 14:40:57;;;;;;;;;;;;;;;22.73;79.05;101883.34;10458358;28;19924;-67
2023/05/08 14:45:59;;;;;;;;;;;;;;;22.56;74.16;101878.69;10458479;28;19925;-67
2023/05/08 14:51:01;;;;;;;;;;;;;;;22.19;76.76;101885.53;10458106;28;20249;-68
2023/05/08 14:56:04;;;;;;;;;;;;;;;22.20;79.07;101879.19;10456862;28;19931;-65
2023/05/08 15:01:06;;;;;;;;;;;;;;;22.20;80.53;101871.19;10458451;28;20019;-65
2023/05/08 15:06:08;;;;;;;;;;;;;;;22.39;76.55;101870.44;10457716;28;19931;-65
2023/05/08 15:11:10;;;;;;;;;;;;;;;22.47;73.13;101869.72;10458104;28;19924;-65
2023/05/08 15:16:13;;;;;;;;;;;;;;;22.22;76.70;101863.91;10458083;28;19925;-65
2023/05/08 15:21:15;;;;;;;;;;;;;;;23.00;75.09;101871.09;10457940;28;19925;-65
2023/05/08 15:26:17;;;;;;;;;;;;;;;22.50;74.57;101860.59;10457793;28;19975;-65
2023/05/08 15:31:22;;;;;;;;;;;;;;;22.15;76.05;101857.44;10456244;28;20407;-65
2023/05/08 15:36:24;;;;;;;;;;;;;;;21.62;75.72;101855.91;10456860;28;20350;-65
2023/05/08 15:41:29;;;;;;;;;;;;;;;21.83;78.33;101850.50;10456827;28;20378;-65
2023/05/08 15:46:31;;;;;;;;;;;;;;;21.39;82.24;101849.06;10457371;28;19994;-65
2023/05/08 15:51:33;;;;;;;;;;;;;;;21.03;88.25;101848.56;10456535;28;19996;-65
2023/05/08 15:56:36;;;;;;;;;;;;;;;20.83;90.98;101840.50;10436594;28;19925;-65
2023/05/08 16:01:40;;;;;;;;;;;;;;;20.79;90.21;101852.34;10414249;28;19925;-65
2023/05/08 16:06:42;;;;;;;;;;;;;;;20.44;90.03;101847.28;10414052;28;19979;-63
2023/05/08 16:11:46;;;;;;;;;;;;;;;19.75;100.00;101859.88;10416228;28;19932;-63
2023/05/08 16:16:49;;;;;;;;;;;;;;;19.33;100.00;101872.88;10414151;28;19925;-63
2023/05/08 16:21:51;;;;;;;;;;;;;;;18.30;100.00;101888.56;10421706;28;19929;-63
2023/05/08 16:26:53;;;;;;;;;;;;;;;17.95;100.00;101898.09;10422191;28;19951;-63
2023/05/08 16:31:55;;;;;;;;;;;;;;;18.18;100.00;101895.59;10421589;28;20277;-63
2023/05/08 16:36:58;;;;;;;;;;;;;;;17.86;100.00;101877.53;10421045;28;20302;-63
2023/05/08 16:42:00;;;;;;;;;;;;;;;17.94;100.00;101874.38;10420872;28;20536;-63
2023/05/08 16:47:03;;;;;;;;;;;;;;;18.18;100.00;101866.44;10421882;28;19925;-63
2023/05/08 16:52:05;;;;;;;;;;;;;;;18.21;100.00;101863.56;10420482;28;19925;-63
2023/05/08 16:57:08;;;;;;;;;;;;;;;18.20;100.00;101861.88;10421382;28;19975;-63
2023/05/08 17:02:10;;;;;;;;;;;;;;;17.99;100.00;101873.06;10416192;28;19929;-63
2023/05/08 17:07:13;;;;;;;;;;;;;;;18.03;100.00;101872.88;10420109;28;19972;-63
2023/05/08 17:12:15;;;;;;;;;;;;;;;17.90;100.00;101864.94;10473068;28;20287;-63
2023/05/08 17:17:18;;;;;;;;;;;;;;;17.67;100.00;101872.69;10536911;28;19924;-63
2023/05/08 17:22:20;;;;;;;;;;;;;;;17.82;100.00;101870.75;10544182;28;19924;-63
2023/05/08 17:27:22;;;;;;;;;;;;;;;17.90;100.00;101875.53;10544414;28;19928;-63
2023/05/08 17:32:25;;;;;;;;;;;;;;;18.01;100.00;101875.63;10541890;28;19924;-63
2023/05/08 17:37:27;;;;;;;;;;;;;;;17.94;100.00;101885.81;10541290;28;19924;-63
2023/05/08 17:42:29;;;;;;;;;;;;;;;18.03;100.00;101889.59;10524920;28;19928;-63
2023/05/08 17:47:32;;;;;;;;;;;;;;;17.70;100.00;101903.41;10499142;28;19974;-63
2023/05/08 17:52:34;;;;;;;;;;;;;;;18.05;100.00;101898.28;10500228;28;19990;-64
2023/05/08 17:57:36;;;;;;;;;;;;;;;17.62;100.00;101893.34;10500821;28;19924;-63
2023/05/08 18:02:38;;;;;;;;;;;;;;;17.28;100.00;101903.59;10500834;28;19978;-63
2023/05/08 18:07:41;;;;;;;;;;;;;;;17.46;100.00;101898.84;10499193;28;19928;-63
2023/05/08 18:12:43;;;;;;;;;;;;;;;17.73;100.00;101903.19;10491465;28;19924;-63
2023/05/08 18:17:46;;;;;;;;;;;;;;;17.45;100.00;101910.41;10500433;28;19993;-63
2023/05/08 18:22:48;;;;;;;;;;;;;;;17.51;100.00;101915.25;10500523;28;19925;-63
2023/05/08 18:27:50;;;;;;;;;;;;;;;17.51;100.00;101894.09;10500882;28;19925;-63
2023/05/08 18:32:53;;;;;;;;;;;;;;;17.39;100.00;101902.88;10500883;28;19951;-64
2023/05/08 18:37:55;;;;;;;;;;;;;;;17.55;100.00;101902.66;10496902;28;19925;-63
2023/05/08 18:42:57;;;;;;;;;;;;;;;17.29;100.00;101892.06;10493898;28;20295;-63
2023/05/08 18:48:00;;;;;;;;;;;;;;;17.29;100.00;101876.19;10458417;28;19974;-64
2023/05/08 18:53:02;;;;;;;;;;;;;;;17.30;100.00;101877.03;10457110;28;20295;-63
2023/05/08 18:58:05;;;;;;;;;;;;;;;17.02;100.00;101876.28;10479432;28;19925;-64
2023/05/08 19:03:07;;;;;;;;;;;;;;;16.92;100.00;101880.50;10495256;28;19931;-64
2023/05/08 19:08:09;;;;;;;;;;;;;;;16.89;100.00;101868.31;10476656;27;19928;-64
2023/05/08 19:13:12;;;;;;;;;;;;;;;17.03;100.00;101876.19;10497354;28;19932;-64
2023/05/08 19:18:14;;;;;;;;;;;;;;;17.03;100.00;101867.38;10498166;28;20018;-64
2023/05/08 19:23:17;;;;;;;;;;;;;;;16.69;100.00;101877.53;10494336;28;20341;-64
2023/05/08 19:28:19;;;;;;;;;;;;;;;16.81;100.00;101862.66;10497021;28;19925;-64
2023/05/08 19:33:21;;;;;;;;;;;;;;;16.50;100.00;101856.78;10496306;28;19936;-64
2023/05/08 19:38:24;;;;;;;;;;;;;;;16.11;100.00;101864.53;10497721;28;19929;-64
2023/05/08 19:43:26;;;;;;;;;;;;;;;16.31;100.00;101863.25;10497303;28;19969;-64
2023/05/08 19:48:29;;;;;;;;;;;;;;;16.24;100.00;101864.59;10497903;28;19932;-64
2023/05/08 19:53:31;;;;;;;;;;;;;;;16.27;100.00;101871.47;10498290;28;19954;-64
2023/05/08 19:58:33;;;;;;;;;;;;;;;16.19;100.00;101874.63;10507151;28;19932;-64
2023/05/08 20:03:35;;;;;;;;;;;;;;;16.06;100.00;101874.56;10505261;28;19924;-64
2023/05/08 20:08:38;;;;;;;;;;;;;;;16.22;100.00;101881.50;10504707;28;20363;-63
2023/05/08 20:13:40;;;;;;;;;;;;;;;16.05;100.00;101858.78;10499372;28;19932;-63
2023/05/08 20:18:43;;;;;;;;;;;;;;;15.83;100.00;101880.44;10503753;28;19928;-63
2023/05/08 20:23:45;;;;;;;;;;;;;;;15.86;100.00;101864.41;10495534;28;20386;-64
2023/05/08 20:28:48;;;;;;;;;;;;;;;15.94;100.00;101862.13;10505962;28;19931;-64
2023/05/08 20:33:50;;;;;;;;;;;;;;;15.83;100.00;101876.00;10504984;28;19976;-64
2023/05/08 20:38:52;;;;;;;;;;;;;;;15.89;100.00;101869.50;10505536;28;19928;-64
2023/05/08 20:43:54;;;;;;;;;;;;;;;15.70;100.00;101882.94;10504316;28;19925;-64
2023/05/08 20:48:58;;;;;;;;;;;;;;;15.79;100.00;101882.41;10503330;28;19928;-63
2023/05/08 20:54:00;;;;;;;;;;;;;;;15.91;100.00;101891.38;10502307;28;19924;-64
2023/05/08 20:59:02;;;;;;;;;;;;;;;15.81;100.00;101880.53;10503416;28;20338;-64
2023/05/08 21:04:05;;;;;;;;;;;;;;;15.71;100.00;101876.72;10500917;28;19928;-64
2023/05/08 21:09:07;;;;;;;;;;;;;;;15.73;100.00;101870.41;10499512;28;19982;-64
2023/05/08 21:14:09;;;;;;;;;;;;;;;15.93;100.00;101876.28;10499054;28;20359;-63
2023/05/08 21:19:16;;;;;;;;;;;;;;;15.79;100.00;101870.06;10499239;28;19924;-63
2023/05/08 21:24:18;;;;;;;;;;;;;;;15.91;100.00;101872.88;10501519;28;19925;-64
2023/05/08 21:29:20;;;;;;;;;;;;;;;16.14;100.00;101866.16;10503669;28;19977;-64
2023/05/08 21:34:23;;;;;;;;;;;;;;;16.07;100.00;101870.09;10502430;28;19928;-64
2023/05/08 21:39:25;;;;;;;;;;;;;;;15.96;100.00;101865.53;10501631;28;19974;-64
2023/05/08 21:44:27;;;;;;;;;;;;;;;15.99;100.00;101857.41;10500292;28;19931;-64
2023/05/08 21:49:30;;;;;;;;;;;;;;;15.83;100.00;101851.38;10502252;28;19925;-64
2023/05/08 21:54:32;;;;;;;;;;;;;;;15.85;100.00;101846.84;10502096;28;19929;-64
2023/05/08 21:59:34;;;;;;;;;;;;;;;15.91;100.00;101834.09;10500813;28;20376;-64
2023/05/08 22:04:37;;;;;;;;;;;;;;;15.82;100.00;101836.47;10500827;28;19924;-64
2023/05/08 22:09:39;;;;;;;;;;;;;;;15.88;100.00;101829.00;10502025;28;19925;-64
2023/05/08 22:14:41;;;;;;;;;;;;;;;15.85;100.00;101829.22;10500497;28;19932;-64
2023/05/08 22:19:43;;;;;;;;;;;;;;;15.95;100.00;101827.69;10500243;28;19931;-64
2023/05/08 22:24:45;;;;;;;;;;;;;;;15.91;100.00;101812.97;10500329;28;19931;-63
2023/05/08 22:29:48;;;;;;;;;;;;;;;15.78;100.00;101817.34;10501376;28;19924;-64
2023/05/08 22:34:50;;;;;;;;;;;;;;;15.60;100.00;101814.91;10500912;28;19924;-64
2023/05/08 22:39:52;;;;;;;;;;;;;;;15.81;100.00;101803.13;10498963;28;19929;-64
2023/05/08 22:44:55;;;;;;;;;;;;;;;15.66;100.00;101805.72;10498532;28;19932;-64
2023/05/08 22:49:58;;;;;;;;;;;;;;;15.86;100.00;101788.66;10498700;28;19925;-64
2023/05/08 22:55:00;;;;;;;;;;;;;;;15.53;100.00;101786.31;10497696;28;19924;-64
2023/05/08 23:00:02;;;;;;;;;;;;;;;15.58;100.00;101777.19;10499724;28;19932;-64
2023/05/08 23:05:05;;;;;;;;;;;;;;;15.75;100.00;101762.97;10498843;28;19924;-64
2023/05/08 23:10:08;;;;;;;;;;;;;;;15.82;100.00;101765.19;10498450;28;20393;-64
2023/05/08 23:15:10;;;;;;;;;;;;;;;15.87;100.00;101763.97;10498627;28;19970;-64
2023/05/08 23:20:13;;;;;;;;;;;;;;;15.69;100.00;101749.28;10499511;28;19929;-64
2023/05/08 23:25:15;;;;;;;;;;;;;;;15.66;100.00;101758.22;10496966;28;19931;-64
2023/05/08 23:30:17;;;;;;;;;;;;;;;15.70;100.00;101746.53;10496872;28;19986;-64
2023/05/08 23:35:19;;;;;;;;;;;;;;;15.55;100.00;101739.56;10496988;28;20337;-64
2023/05/08 23:40:22;;;;;;;;;;;;;;;15.55;100.00;101735.16;10498968;28;19925;-64
2023/05/08 23:45:24;;;;;;;;;;;;;;;15.73;100.00;101738.38;10497302;28;20346;-64
2023/05/08 23:50:26;;;;;;;;;;;;;;;15.51;100.00;101730.16;10498756;28;19950;-64
2023/05/08 23:55:28;;;;;;;;;;;;;;;15.26;100.00;101734.34;10497161;28;19924;-64
